sensor_id;sensor_type;location;lat;lon;timestamp;P1;durP1;ratioP1;P2;durP2;ratioP2
12350;SDS011;6240;51.538;7.696;2023-03-01T00:01:59;15.03;;;7.87;;
12350;SDS011;6240;51.538;7.696;2023-03-01T00:04:27;11.03;;;6.77;;
12350;SDS011;6240;51.538;7.696;2023-03-01T00:06:55;9.60;;;7.07;;
12350;SDS011;6240;51.538;7.696;2023-03-01T00:09:22;11.60;;;7.03;;
12350;SDS011;6240;51.538;7.696;2023-03-01T00:11:49;9.60;;;6.90;;
12350;SDS011;6240;51.538;7.696;2023-03-01T00:14:16;8.67;;;6.27;;
12350;SDS011;6240;51.538;7.696;2023-03-01T00:16:45;9.13;;;6.70;;
12350;SDS011;6240;51.538;7.696;2023-03-01T00:19:13;7.53;;;5.93;;
12350;SDS011;6240;51.538;7.696;2023-03-01T00:21:42;10.17;;;6.60;;
12350;SDS011;6240;51.538;7.696;2023-03-01T00:24:09;8.33;;;6.10;;
12350;SDS011;6240;51.538;7.696;2023-03-01T00:26:37;10.17;;;6.43;;
12350;SDS011;6240;51.538;7.696;2023-03-01T00:29:04;8.80;;;6.77;;
12350;SDS011;6240;51.538;7.696;2023-03-01T00:31:32;9.57;;;6.63;;
12350;SDS011;6240;51.538;7.696;2023-03-01T00:34:00;11.43;;;6.67;;
12350;SDS011;6240;51.538;7.696;2023-03-01T00:36:28;7.87;;;6.27;;
12350;SDS011;6240;51.538;7.696;2023-03-01T00:38:57;8.97;;;6.87;;
12350;SDS011;6240;51.538;7.696;2023-03-01T00:41:25;10.27;;;7.53;;
12350;SDS011;6240;51.538;7.696;2023-03-01T00:43:52;9.33;;;7.30;;
12350;SDS011;6240;51.538;7.696;2023-03-01T00:46:22;10.03;;;7.47;;
12350;SDS011;6240;51.538;7.696;2023-03-01T00:48:50;10.33;;;8.47;;
12350;SDS011;6240;51.538;7.696;2023-03-01T00:51:17;10.00;;;7.40;;
12350;SDS011;6240;51.538;7.696;2023-03-01T00:53:45;10.67;;;7.63;;
12350;SDS011;6240;51.538;7.696;2023-03-01T00:56:13;9.63;;;7.63;;
12350;SDS011;6240;51.538;7.696;2023-03-01T00:58:41;11.93;;;6.90;;
12350;SDS011;6240;51.538;7.696;2023-03-01T01:01:09;9.40;;;6.93;;
12350;SDS011;6240;51.538;7.696;2023-03-01T01:03:42;9.60;;;7.50;;
12350;SDS011;6240;51.538;7.696;2023-03-01T01:06:12;11.30;;;7.57;;
12350;SDS011;6240;51.538;7.696;2023-03-01T01:08:39;10.43;;;7.53;;
12350;SDS011;6240;51.538;7.696;2023-03-01T01:11:08;9.30;;;7.33;;
12350;SDS011;6240;51.538;7.696;2023-03-01T01:13:37;10.00;;;6.83;;
12350;SDS011;6240;51.538;7.696;2023-03-01T01:16:04;10.30;;;7.07;;
12350;SDS011;6240;51.538;7.696;2023-03-01T01:18:32;9.73;;;7.17;;
12350;SDS011;6240;51.538;7.696;2023-03-01T01:21:03;9.13;;;7.23;;
12350;SDS011;6240;51.538;7.696;2023-03-01T01:23:30;10.70;;;7.70;;
12350;SDS011;6240;51.538;7.696;2023-03-01T01:26:02;14.27;;;8.00;;
12350;SDS011;6240;51.538;7.696;2023-03-01T01:28:29;9.23;;;7.37;;
12350;SDS011;6240;51.538;7.696;2023-03-01T01:30:58;9.30;;;7.77;;
12350;SDS011;6240;51.538;7.696;2023-03-01T01:33:25;12.27;;;7.83;;
12350;SDS011;6240;51.538;7.696;2023-03-01T01:35:52;10.77;;;7.87;;
12350;SDS011;6240;51.538;7.696;2023-03-01T01:38:20;10.93;;;8.47;;
12350;SDS011;6240;51.538;7.696;2023-03-01T01:40:48;9.93;;;7.33;;
12350;SDS011;6240;51.538;7.696;2023-03-01T01:43:20;12.87;;;8.30;;
12350;SDS011;6240;51.538;7.696;2023-03-01T01:45:48;11.00;;;8.70;;
12350;SDS011;6240;51.538;7.696;2023-03-01T01:48:18;11.13;;;8.27;;
12350;SDS011;6240;51.538;7.696;2023-03-01T01:50:48;12.00;;;8.10;;
12350;SDS011;6240;51.538;7.696;2023-03-01T01:53:18;11.37;;;8.77;;
12350;SDS011;6240;51.538;7.696;2023-03-01T01:55:47;13.87;;;8.43;;
12350;SDS011;6240;51.538;7.696;2023-03-01T01:58:17;9.27;;;8.23;;
12350;SDS011;6240;51.538;7.696;2023-03-01T02:00:45;12.23;;;8.80;;
12350;SDS011;6240;51.538;7.696;2023-03-01T02:03:14;13.43;;;9.00;;
12350;SDS011;6240;51.538;7.696;2023-03-01T02:05:45;10.40;;;8.70;;
12350;SDS011;6240;51.538;7.696;2023-03-01T02:08:14;12.37;;;8.67;;
12350;SDS011;6240;51.538;7.696;2023-03-01T02:10:42;11.60;;;8.27;;
12350;SDS011;6240;51.538;7.696;2023-03-01T02:13:11;14.03;;;8.23;;
12350;SDS011;6240;51.538;7.696;2023-03-01T02:15:39;11.87;;;8.30;;
12350;SDS011;6240;51.538;7.696;2023-03-01T02:18:09;13.67;;;8.37;;
12350;SDS011;6240;51.538;7.696;2023-03-01T02:20:39;12.87;;;9.03;;
12350;SDS011;6240;51.538;7.696;2023-03-01T02:23:09;13.27;;;9.33;;
12350;SDS011;6240;51.538;7.696;2023-03-01T02:25:38;12.27;;;8.90;;
12350;SDS011;6240;51.538;7.696;2023-03-01T02:28:09;11.13;;;9.07;;
12350;SDS011;6240;51.538;7.696;2023-03-01T02:30:39;11.80;;;8.93;;
12350;SDS011;6240;51.538;7.696;2023-03-01T02:33:27;12.00;;;8.70;;
12350;SDS011;6240;51.538;7.696;2023-03-01T02:35:58;13.33;;;8.90;;
12350;SDS011;6240;51.538;7.696;2023-03-01T02:38:25;13.50;;;8.47;;
12350;SDS011;6240;51.538;7.696;2023-03-01T02:40:53;13.73;;;8.80;;
12350;SDS011;6240;51.538;7.696;2023-03-01T02:43:22;10.00;;;7.93;;
12350;SDS011;6240;51.538;7.696;2023-03-01T02:45:52;12.47;;;8.50;;
12350;SDS011;6240;51.538;7.696;2023-03-01T02:48:19;11.83;;;8.43;;
12350;SDS011;6240;51.538;7.696;2023-03-01T02:50:52;13.17;;;8.70;;
12350;SDS011;6240;51.538;7.696;2023-03-01T02:53:21;10.60;;;7.80;;
12350;SDS011;6240;51.538;7.696;2023-03-01T02:55:49;8.93;;;7.23;;
12350;SDS011;6240;51.538;7.696;2023-03-01T02:58:16;10.40;;;7.97;;
12350;SDS011;6240;51.538;7.696;2023-03-01T03:00:43;11.80;;;8.37;;
12350;SDS011;6240;51.538;7.696;2023-03-01T03:03:13;10.67;;;8.37;;
12350;SDS011;6240;51.538;7.696;2023-03-01T03:05:42;11.40;;;7.87;;
12350;SDS011;6240;51.538;7.696;2023-03-01T03:08:09;16.33;;;8.70;;
12350;SDS011;6240;51.538;7.696;2023-03-01T03:10:37;12.23;;;8.07;;
12350;SDS011;6240;51.538;7.696;2023-03-01T03:13:05;12.63;;;8.70;;
12350;SDS011;6240;51.538;7.696;2023-03-01T03:15:33;11.57;;;8.20;;
12350;SDS011;6240;51.538;7.696;2023-03-01T03:18:02;12.33;;;9.10;;
12350;SDS011;6240;51.538;7.696;2023-03-01T03:20:30;11.20;;;8.87;;
12350;SDS011;6240;51.538;7.696;2023-03-01T03:22:57;13.17;;;8.33;;
12350;SDS011;6240;51.538;7.696;2023-03-01T03:25:25;11.23;;;8.40;;
12350;SDS011;6240;51.538;7.696;2023-03-01T03:27:53;14.07;;;8.47;;
12350;SDS011;6240;51.538;7.696;2023-03-01T03:30:22;12.33;;;8.20;;
12350;SDS011;6240;51.538;7.696;2023-03-01T03:32:50;13.30;;;8.57;;
12350;SDS011;6240;51.538;7.696;2023-03-01T03:35:18;12.10;;;9.03;;
12350;SDS011;6240;51.538;7.696;2023-03-01T03:37:47;12.37;;;8.50;;
12350;SDS011;6240;51.538;7.696;2023-03-01T03:40:31;11.97;;;8.40;;
12350;SDS011;6240;51.538;7.696;2023-03-01T03:42:59;10.43;;;8.13;;
12350;SDS011;6240;51.538;7.696;2023-03-01T03:45:26;11.97;;;9.00;;
12350;SDS011;6240;51.538;7.696;2023-03-01T03:47:54;10.20;;;7.87;;
12350;SDS011;6240;51.538;7.696;2023-03-01T03:50:21;11.57;;;8.13;;
12350;SDS011;6240;51.538;7.696;2023-03-01T03:52:50;13.70;;;8.90;;
12350;SDS011;6240;51.538;7.696;2023-03-01T03:55:17;12.53;;;8.77;;
12350;SDS011;6240;51.538;7.696;2023-03-01T03:57:45;11.30;;;8.10;;
12350;SDS011;6240;51.538;7.696;2023-03-01T04:00:16;12.10;;;8.57;;
12350;SDS011;6240;51.538;7.696;2023-03-01T04:02:44;12.53;;;8.43;;
12350;SDS011;6240;51.538;7.696;2023-03-01T04:05:12;10.87;;;8.67;;
12350;SDS011;6240;51.538;7.696;2023-03-01T04:07:40;10.97;;;8.37;;
12350;SDS011;6240;51.538;7.696;2023-03-01T04:10:10;13.40;;;8.77;;
12350;SDS011;6240;51.538;7.696;2023-03-01T04:12:37;11.87;;;8.63;;
12350;SDS011;6240;51.538;7.696;2023-03-01T04:15:05;11.43;;;8.87;;
12350;SDS011;6240;51.538;7.696;2023-03-01T04:17:38;12.47;;;9.07;;
12350;SDS011;6240;51.538;7.696;2023-03-01T04:20:07;12.67;;;8.77;;
12350;SDS011;6240;51.538;7.696;2023-03-01T04:22:36;12.17;;;8.97;;
12350;SDS011;6240;51.538;7.696;2023-03-01T04:25:03;11.53;;;8.43;;
12350;SDS011;6240;51.538;7.696;2023-03-01T04:27:33;11.27;;;8.50;;
12350;SDS011;6240;51.538;7.696;2023-03-01T04:30:00;11.77;;;8.97;;
12350;SDS011;6240;51.538;7.696;2023-03-01T04:32:27;13.13;;;8.93;;
12350;SDS011;6240;51.538;7.696;2023-03-01T04:34:55;13.77;;;8.47;;
12350;SDS011;6240;51.538;7.696;2023-03-01T04:37:26;12.27;;;9.33;;
12350;SDS011;6240;51.538;7.696;2023-03-01T04:39:55;14.40;;;9.40;;
12350;SDS011;6240;51.538;7.696;2023-03-01T04:42:22;14.97;;;9.70;;
12350;SDS011;6240;51.538;7.696;2023-03-01T04:44:51;11.17;;;9.33;;
12350;SDS011;6240;51.538;7.696;2023-03-01T04:47:19;14.23;;;9.30;;
12350;SDS011;6240;51.538;7.696;2023-03-01T04:49:47;13.80;;;9.73;;
12350;SDS011;6240;51.538;7.696;2023-03-01T04:52:14;11.73;;;9.00;;
12350;SDS011;6240;51.538;7.696;2023-03-01T04:54:41;11.50;;;8.87;;
12350;SDS011;6240;51.538;7.696;2023-03-01T04:57:08;12.93;;;9.37;;
12350;SDS011;6240;51.538;7.696;2023-03-01T04:59:36;15.53;;;10.30;;
12350;SDS011;6240;51.538;7.696;2023-03-01T05:02:06;14.37;;;9.83;;
12350;SDS011;6240;51.538;7.696;2023-03-01T05:04:34;16.47;;;10.67;;
12350;SDS011;6240;51.538;7.696;2023-03-01T05:07:11;12.93;;;8.73;;
12350;SDS011;6240;51.538;7.696;2023-03-01T05:09:44;11.20;;;8.60;;
12350;SDS011;6240;51.538;7.696;2023-03-01T05:12:12;11.73;;;9.00;;
12350;SDS011;6240;51.538;7.696;2023-03-01T05:14:39;13.10;;;8.93;;
12350;SDS011;6240;51.538;7.696;2023-03-01T05:17:07;10.40;;;9.03;;
12350;SDS011;6240;51.538;7.696;2023-03-01T05:19:34;11.57;;;9.03;;
12350;SDS011;6240;51.538;7.696;2023-03-01T05:22:02;11.70;;;8.87;;
12350;SDS011;6240;51.538;7.696;2023-03-01T05:24:30;14.37;;;9.50;;
12350;SDS011;6240;51.538;7.696;2023-03-01T05:26:58;14.70;;;9.03;;
12350;SDS011;6240;51.538;7.696;2023-03-01T05:29:26;14.30;;;9.60;;
12350;SDS011;6240;51.538;7.696;2023-03-01T05:31:54;12.47;;;9.20;;
12350;SDS011;6240;51.538;7.696;2023-03-01T05:34:24;10.37;;;8.43;;
12350;SDS011;6240;51.538;7.696;2023-03-01T05:36:52;12.50;;;9.13;;
12350;SDS011;6240;51.538;7.696;2023-03-01T05:39:19;12.80;;;9.67;;
12350;SDS011;6240;51.538;7.696;2023-03-01T05:41:48;16.33;;;9.47;;
12350;SDS011;6240;51.538;7.696;2023-03-01T05:44:16;14.30;;;9.50;;
12350;SDS011;6240;51.538;7.696;2023-03-01T05:46:46;13.57;;;9.83;;
12350;SDS011;6240;51.538;7.696;2023-03-01T05:49:16;12.17;;;9.20;;
12350;SDS011;6240;51.538;7.696;2023-03-01T05:51:52;15.97;;;10.60;;
12350;SDS011;6240;51.538;7.696;2023-03-01T05:54:21;12.43;;;9.23;;
12350;SDS011;6240;51.538;7.696;2023-03-01T05:56:50;14.93;;;9.30;;
12350;SDS011;6240;51.538;7.696;2023-03-01T05:59:18;14.20;;;9.80;;
12350;SDS011;6240;51.538;7.696;2023-03-01T06:01:45;14.20;;;9.53;;
12350;SDS011;6240;51.538;7.696;2023-03-01T06:04:12;13.97;;;8.80;;
12350;SDS011;6240;51.538;7.696;2023-03-01T06:06:39;14.83;;;9.37;;
12350;SDS011;6240;51.538;7.696;2023-03-01T06:09:09;18.20;;;9.97;;
12350;SDS011;6240;51.538;7.696;2023-03-01T06:11:41;14.37;;;9.57;;
12350;SDS011;6240;51.538;7.696;2023-03-01T06:14:12;14.30;;;9.13;;
12350;SDS011;6240;51.538;7.696;2023-03-01T06:16:41;14.07;;;8.67;;
12350;SDS011;6240;51.538;7.696;2023-03-01T06:19:08;14.33;;;9.63;;
12350;SDS011;6240;51.538;7.696;2023-03-01T06:21:35;15.40;;;9.90;;
12350;SDS011;6240;51.538;7.696;2023-03-01T06:24:03;12.10;;;8.87;;
12350;SDS011;6240;51.538;7.696;2023-03-01T06:26:34;14.07;;;8.77;;
12350;SDS011;6240;51.538;7.696;2023-03-01T06:29:01;13.50;;;9.00;;
12350;SDS011;6240;51.538;7.696;2023-03-01T06:31:28;13.47;;;9.37;;
12350;SDS011;6240;51.538;7.696;2023-03-01T06:33:56;13.00;;;8.53;;
12350;SDS011;6240;51.538;7.696;2023-03-01T06:36:29;14.67;;;9.70;;
12350;SDS011;6240;51.538;7.696;2023-03-01T06:38:58;11.73;;;8.83;;
12350;SDS011;6240;51.538;7.696;2023-03-01T06:41:27;12.80;;;9.60;;
12350;SDS011;6240;51.538;7.696;2023-03-01T06:44:04;12.90;;;9.83;;
12350;SDS011;6240;51.538;7.696;2023-03-01T06:46:34;15.10;;;9.60;;
12350;SDS011;6240;51.538;7.696;2023-03-01T06:49:03;12.70;;;9.20;;
12350;SDS011;6240;51.538;7.696;2023-03-01T06:51:34;10.77;;;8.83;;
12350;SDS011;6240;51.538;7.696;2023-03-01T06:54:01;10.67;;;8.67;;
12350;SDS011;6240;51.538;7.696;2023-03-01T06:56:28;12.97;;;8.80;;
12350;SDS011;6240;51.538;7.696;2023-03-01T06:58:55;12.50;;;9.33;;
12350;SDS011;6240;51.538;7.696;2023-03-01T07:01:25;15.70;;;9.10;;
12350;SDS011;6240;51.538;7.696;2023-03-01T07:03:56;12.03;;;9.07;;
12350;SDS011;6240;51.538;7.696;2023-03-01T07:06:25;11.37;;;8.33;;
12350;SDS011;6240;51.538;7.696;2023-03-01T07:08:52;14.70;;;9.20;;
12350;SDS011;6240;51.538;7.696;2023-03-01T07:11:20;11.53;;;8.97;;
12350;SDS011;6240;51.538;7.696;2023-03-01T07:13:50;13.13;;;9.73;;
12350;SDS011;6240;51.538;7.696;2023-03-01T07:16:20;14.40;;;9.07;;
12350;SDS011;6240;51.538;7.696;2023-03-01T07:18:49;11.07;;;8.77;;
12350;SDS011;6240;51.538;7.696;2023-03-01T07:21:16;14.23;;;8.97;;
12350;SDS011;6240;51.538;7.696;2023-03-01T07:23:43;10.27;;;8.40;;
12350;SDS011;6240;51.538;7.696;2023-03-01T07:26:10;12.27;;;9.23;;
12350;SDS011;6240;51.538;7.696;2023-03-01T07:28:37;13.60;;;9.20;;
12350;SDS011;6240;51.538;7.696;2023-03-01T07:31:05;16.90;;;9.50;;
12350;SDS011;6240;51.538;7.696;2023-03-01T07:33:33;15.03;;;9.10;;
12350;SDS011;6240;51.538;7.696;2023-03-01T07:36:03;10.87;;;8.80;;
12350;SDS011;6240;51.538;7.696;2023-03-01T07:38:30;14.17;;;8.83;;
12350;SDS011;6240;51.538;7.696;2023-03-01T07:40:57;14.57;;;9.77;;
12350;SDS011;6240;51.538;7.696;2023-03-01T07:43:25;12.37;;;9.10;;
12350;SDS011;6240;51.538;7.696;2023-03-01T07:45:52;12.67;;;10.10;;
12350;SDS011;6240;51.538;7.696;2023-03-01T07:48:19;13.83;;;9.70;;
12350;SDS011;6240;51.538;7.696;2023-03-01T07:50:50;15.00;;;9.67;;
12350;SDS011;6240;51.538;7.696;2023-03-01T07:53:22;10.83;;;8.23;;
12350;SDS011;6240;51.538;7.696;2023-03-01T07:55:59;12.40;;;9.00;;
12350;SDS011;6240;51.538;7.696;2023-03-01T07:58:28;11.63;;;9.37;;
12350;SDS011;6240;51.538;7.696;2023-03-01T08:01:01;13.10;;;9.40;;
12350;SDS011;6240;51.538;7.696;2023-03-01T08:03:30;12.17;;;9.27;;
12350;SDS011;6240;51.538;7.696;2023-03-01T08:05:58;14.13;;;9.57;;
12350;SDS011;6240;51.538;7.696;2023-03-01T08:08:28;12.33;;;9.23;;
12350;SDS011;6240;51.538;7.696;2023-03-01T08:10:56;11.80;;;9.33;;
12350;SDS011;6240;51.538;7.696;2023-03-01T08:13:23;12.40;;;9.20;;
12350;SDS011;6240;51.538;7.696;2023-03-01T08:15:50;11.33;;;8.10;;
12350;SDS011;6240;51.538;7.696;2023-03-01T08:18:18;11.60;;;9.87;;
12350;SDS011;6240;51.538;7.696;2023-03-01T08:20:46;11.67;;;9.57;;
12350;SDS011;6240;51.538;7.696;2023-03-01T08:23:13;15.73;;;10.17;;
12350;SDS011;6240;51.538;7.696;2023-03-01T08:25:42;10.83;;;9.27;;
12350;SDS011;6240;51.538;7.696;2023-03-01T08:28:09;15.30;;;9.67;;
12350;SDS011;6240;51.538;7.696;2023-03-01T08:30:36;12.50;;;9.87;;
12350;SDS011;6240;51.538;7.696;2023-03-01T08:33:03;13.97;;;10.20;;
12350;SDS011;6240;51.538;7.696;2023-03-01T08:35:30;16.03;;;9.07;;
12350;SDS011;6240;51.538;7.696;2023-03-01T08:37:58;14.73;;;9.80;;
12350;SDS011;6240;51.538;7.696;2023-03-01T08:40:25;16.57;;;9.20;;
12350;SDS011;6240;51.538;7.696;2023-03-01T08:42:53;13.80;;;9.27;;
12350;SDS011;6240;51.538;7.696;2023-03-01T08:45:21;11.73;;;8.77;;
12350;SDS011;6240;51.538;7.696;2023-03-01T08:47:51;13.77;;;8.97;;
12350;SDS011;6240;51.538;7.696;2023-03-01T08:50:21;13.47;;;9.20;;
12350;SDS011;6240;51.538;7.696;2023-03-01T08:52:51;13.73;;;8.50;;
12350;SDS011;6240;51.538;7.696;2023-03-01T08:55:20;10.63;;;7.83;;
12350;SDS011;6240;51.538;7.696;2023-03-01T08:57:48;11.63;;;8.73;;
12350;SDS011;6240;51.538;7.696;2023-03-01T09:00:17;11.07;;;7.67;;
12350;SDS011;6240;51.538;7.696;2023-03-01T09:02:44;9.17;;;7.40;;
12350;SDS011;6240;51.538;7.696;2023-03-01T09:05:11;10.80;;;7.77;;
12350;SDS011;6240;51.538;7.696;2023-03-01T09:07:39;11.77;;;7.67;;
12350;SDS011;6240;51.538;7.696;2023-03-01T09:10:06;9.60;;;7.87;;
12350;SDS011;6240;51.538;7.696;2023-03-01T09:12:33;10.53;;;7.43;;
12350;SDS011;6240;51.538;7.696;2023-03-01T09:15:00;9.67;;;7.50;;
12350;SDS011;6240;51.538;7.696;2023-03-01T09:17:29;8.47;;;7.17;;
12350;SDS011;6240;51.538;7.696;2023-03-01T09:19:56;9.77;;;6.87;;
12350;SDS011;6240;51.538;7.696;2023-03-01T09:22:24;9.83;;;7.27;;
12350;SDS011;6240;51.538;7.696;2023-03-01T09:24:51;9.47;;;7.70;;
12350;SDS011;6240;51.538;7.696;2023-03-01T09:27:18;8.20;;;7.23;;
12350;SDS011;6240;51.538;7.696;2023-03-01T09:29:46;8.07;;;7.23;;
12350;SDS011;6240;51.538;7.696;2023-03-01T09:32:13;9.23;;;7.53;;
12350;SDS011;6240;51.538;7.696;2023-03-01T09:34:41;8.10;;;6.50;;
12350;SDS011;6240;51.538;7.696;2023-03-01T09:37:26;7.37;;;6.23;;
12350;SDS011;6240;51.538;7.696;2023-03-01T09:39:54;8.40;;;6.27;;
12350;SDS011;6240;51.538;7.696;2023-03-01T09:42:21;8.63;;;6.73;;
12350;SDS011;6240;51.538;7.696;2023-03-01T09:44:49;9.43;;;7.17;;
12350;SDS011;6240;51.538;7.696;2023-03-01T09:47:19;9.10;;;6.60;;
12350;SDS011;6240;51.538;7.696;2023-03-01T09:49:54;11.27;;;6.60;;
12350;SDS011;6240;51.538;7.696;2023-03-01T09:52:28;8.60;;;6.60;;
12350;SDS011;6240;51.538;7.696;2023-03-01T09:55:05;8.87;;;6.30;;
12350;SDS011;6240;51.538;7.696;2023-03-01T09:57:41;9.77;;;6.17;;
12350;SDS011;6240;51.538;7.696;2023-03-01T10:00:24;8.83;;;5.83;;
12350;SDS011;6240;51.538;7.696;2023-03-01T10:02:55;7.10;;;6.13;;
12350;SDS011;6240;51.538;7.696;2023-03-01T10:05:30;6.20;;;5.53;;
12350;SDS011;6240;51.538;7.696;2023-03-01T10:08:02;8.80;;;5.90;;
12350;SDS011;6240;51.538;7.696;2023-03-01T10:10:33;10.63;;;6.70;;
12350;SDS011;6240;51.538;7.696;2023-03-01T10:13:01;8.00;;;5.90;;
12350;SDS011;6240;51.538;7.696;2023-03-01T10:15:31;8.97;;;5.37;;
12350;SDS011;6240;51.538;7.696;2023-03-01T10:18:01;9.37;;;5.60;;
12350;SDS011;6240;51.538;7.696;2023-03-01T10:20:36;6.57;;;5.57;;
12350;SDS011;6240;51.538;7.696;2023-03-01T10:23:09;10.57;;;6.30;;
12350;SDS011;6240;51.538;7.696;2023-03-01T10:25:42;8.20;;;5.90;;
12350;SDS011;6240;51.538;7.696;2023-03-01T10:28:14;6.80;;;5.37;;
12350;SDS011;6240;51.538;7.696;2023-03-01T10:30:45;7.87;;;6.23;;
12350;SDS011;6240;51.538;7.696;2023-03-01T10:33:15;9.20;;;5.77;;
12350;SDS011;6240;51.538;7.696;2023-03-01T10:35:47;7.13;;;6.03;;
12350;SDS011;6240;51.538;7.696;2023-03-01T10:38:18;8.17;;;5.80;;
12350;SDS011;6240;51.538;7.696;2023-03-01T10:40:52;6.93;;;5.70;;
12350;SDS011;6240;51.538;7.696;2023-03-01T10:43:24;6.73;;;5.67;;
12350;SDS011;6240;51.538;7.696;2023-03-01T10:45:55;7.00;;;5.67;;
12350;SDS011;6240;51.538;7.696;2023-03-01T10:48:26;7.90;;;5.67;;
12350;SDS011;6240;51.538;7.696;2023-03-01T10:51:06;8.20;;;5.83;;
12350;SDS011;6240;51.538;7.696;2023-03-01T10:53:34;8.77;;;6.13;;
12350;SDS011;6240;51.538;7.696;2023-03-01T10:56:03;6.83;;;5.37;;
12350;SDS011;6240;51.538;7.696;2023-03-01T10:58:32;9.47;;;6.30;;
12350;SDS011;6240;51.538;7.696;2023-03-01T11:00:59;8.03;;;5.50;;
12350;SDS011;6240;51.538;7.696;2023-03-01T11:03:28;7.73;;;5.63;;
12350;SDS011;6240;51.538;7.696;2023-03-01T11:05:57;8.07;;;5.60;;
12350;SDS011;6240;51.538;7.696;2023-03-01T11:08:36;7.30;;;5.73;;
12350;SDS011;6240;51.538;7.696;2023-03-01T11:11:13;7.73;;;5.83;;
12350;SDS011;6240;51.538;7.696;2023-03-01T11:13:47;10.50;;;6.17;;
12350;SDS011;6240;51.538;7.696;2023-03-01T11:16:17;8.27;;;5.90;;
12350;SDS011;6240;51.538;7.696;2023-03-01T11:18:55;7.63;;;6.33;;
12350;SDS011;6240;51.538;7.696;2023-03-01T11:21:22;8.03;;;6.13;;
12350;SDS011;6240;51.538;7.696;2023-03-01T11:23:52;9.53;;;6.27;;
12350;SDS011;6240;51.538;7.696;2023-03-01T11:26:20;9.07;;;5.90;;
12350;SDS011;6240;51.538;7.696;2023-03-01T11:28:48;7.80;;;5.67;;
12350;SDS011;6240;51.538;7.696;2023-03-01T11:31:17;6.73;;;5.73;;
12350;SDS011;6240;51.538;7.696;2023-03-01T11:33:46;6.83;;;5.67;;
12350;SDS011;6240;51.538;7.696;2023-03-01T11:36:16;6.63;;;5.50;;
12350;SDS011;6240;51.538;7.696;2023-03-01T11:38:44;7.03;;;5.77;;
12350;SDS011;6240;51.538;7.696;2023-03-01T11:41:18;8.73;;;5.97;;
12350;SDS011;6240;51.538;7.696;2023-03-01T11:43:50;7.87;;;6.23;;
12350;SDS011;6240;51.538;7.696;2023-03-01T11:49:17;7.67;;;5.87;;
12350;SDS011;6240;51.538;7.696;2023-03-01T11:51:48;8.80;;;5.30;;
12350;SDS011;6240;51.538;7.696;2023-03-01T11:54:23;9.93;;;6.23;;
12350;SDS011;6240;51.538;7.696;2023-03-01T11:56:54;8.77;;;5.87;;
12350;SDS011;6240;51.538;7.696;2023-03-01T12:02:24;8.57;;;5.53;;
12350;SDS011;6240;51.538;7.696;2023-03-01T12:04:59;7.20;;;5.67;;
12350;SDS011;6240;51.538;7.696;2023-03-01T12:07:33;8.07;;;5.73;;
12350;SDS011;6240;51.538;7.696;2023-03-01T12:10:14;7.57;;;5.80;;
12350;SDS011;6240;51.538;7.696;2023-03-01T12:13:17;7.67;;;5.10;;
12350;SDS011;6240;51.538;7.696;2023-03-01T12:15:55;7.60;;;5.70;;
12350;SDS011;6240;51.538;7.696;2023-03-01T12:18:29;9.07;;;5.80;;
12350;SDS011;6240;51.538;7.696;2023-03-01T12:21:03;7.67;;;5.90;;
12350;SDS011;6240;51.538;7.696;2023-03-01T12:23:44;9.43;;;6.07;;
12350;SDS011;6240;51.538;7.696;2023-03-01T12:26:16;10.97;;;5.83;;
12350;SDS011;6240;51.538;7.696;2023-03-01T12:28:50;7.70;;;6.10;;
12350;SDS011;6240;51.538;7.696;2023-03-01T12:31:26;8.10;;;5.70;;
12350;SDS011;6240;51.538;7.696;2023-03-01T12:33:59;9.03;;;6.57;;
12350;SDS011;6240;51.538;7.696;2023-03-01T12:36:31;9.67;;;6.17;;
12350;SDS011;6240;51.538;7.696;2023-03-01T12:39:06;9.93;;;5.97;;
12350;SDS011;6240;51.538;7.696;2023-03-01T12:41:43;8.80;;;5.70;;
12350;SDS011;6240;51.538;7.696;2023-03-01T12:47:07;6.60;;;5.60;;
12350;SDS011;6240;51.538;7.696;2023-03-01T12:49:40;7.57;;;5.93;;
12350;SDS011;6240;51.538;7.696;2023-03-01T12:52:10;9.13;;;5.73;;
12350;SDS011;6240;51.538;7.696;2023-03-01T12:54:38;6.97;;;5.40;;
12350;SDS011;6240;51.538;7.696;2023-03-01T12:57:08;8.27;;;5.87;;
12350;SDS011;6240;51.538;7.696;2023-03-01T12:59:37;9.30;;;5.60;;
12350;SDS011;6240;51.538;7.696;2023-03-01T13:02:10;6.70;;;5.70;;
12350;SDS011;6240;51.538;7.696;2023-03-01T13:04:49;6.93;;;4.93;;
12350;SDS011;6240;51.538;7.696;2023-03-01T13:07:22;10.00;;;5.70;;
12350;SDS011;6240;51.538;7.696;2023-03-01T13:09:54;6.80;;;5.17;;
12350;SDS011;6240;51.538;7.696;2023-03-01T13:12:46;6.37;;;5.47;;
12350;SDS011;6240;51.538;7.696;2023-03-01T13:15:32;8.63;;;5.73;;
12350;SDS011;6240;51.538;7.696;2023-03-01T13:18:02;7.93;;;5.20;;
12350;SDS011;6240;51.538;7.696;2023-03-01T13:20:45;8.47;;;5.73;;
12350;SDS011;6240;51.538;7.696;2023-03-01T13:23:24;7.27;;;5.20;;
12350;SDS011;6240;51.538;7.696;2023-03-01T13:26:01;7.03;;;4.63;;
12350;SDS011;6240;51.538;7.696;2023-03-01T13:28:36;6.93;;;5.10;;
12350;SDS011;6240;51.538;7.696;2023-03-01T13:31:07;6.13;;;4.60;;
12350;SDS011;6240;51.538;7.696;2023-03-01T13:33:44;7.87;;;5.23;;
12350;SDS011;6240;51.538;7.696;2023-03-01T13:38:58;5.73;;;4.50;;
12350;SDS011;6240;51.538;7.696;2023-03-01T13:44:17;6.83;;;5.30;;
12350;SDS011;6240;51.538;7.696;2023-03-01T13:46:47;6.07;;;4.90;;
12350;SDS011;6240;51.538;7.696;2023-03-01T13:49:17;8.73;;;5.67;;
12350;SDS011;6240;51.538;7.696;2023-03-01T13:51:46;9.53;;;5.60;;
12350;SDS011;6240;51.538;7.696;2023-03-01T13:54:16;5.93;;;5.00;;
12350;SDS011;6240;51.538;7.696;2023-03-01T13:56:45;5.80;;;4.93;;
12350;SDS011;6240;51.538;7.696;2023-03-01T13:59:13;8.50;;;4.90;;
12350;SDS011;6240;51.538;7.696;2023-03-01T14:01:41;5.83;;;4.97;;
12350;SDS011;6240;51.538;7.696;2023-03-01T14:04:20;6.40;;;5.10;;
12350;SDS011;6240;51.538;7.696;2023-03-01T14:06:51;5.87;;;4.77;;
12350;SDS011;6240;51.538;7.696;2023-03-01T14:09:21;5.83;;;4.57;;
12350;SDS011;6240;51.538;7.696;2023-03-01T14:11:56;6.17;;;4.50;;
12350;SDS011;6240;51.538;7.696;2023-03-01T14:17:16;5.93;;;4.63;;
12350;SDS011;6240;51.538;7.696;2023-03-01T14:19:47;5.87;;;3.90;;
12350;SDS011;6240;51.538;7.696;2023-03-01T14:22:16;7.00;;;4.73;;
12350;SDS011;6240;51.538;7.696;2023-03-01T14:24:46;6.37;;;4.90;;
12350;SDS011;6240;51.538;7.696;2023-03-01T14:27:14;7.03;;;4.97;;
12350;SDS011;6240;51.538;7.696;2023-03-01T14:29:42;5.73;;;5.00;;
12350;SDS011;6240;51.538;7.696;2023-03-01T14:32:12;6.57;;;4.90;;
12350;SDS011;6240;51.538;7.696;2023-03-01T14:34:42;6.97;;;5.03;;
12350;SDS011;6240;51.538;7.696;2023-03-01T14:37:11;9.27;;;5.57;;
12350;SDS011;6240;51.538;7.696;2023-03-01T14:39:45;8.27;;;5.07;;
12350;SDS011;6240;51.538;7.696;2023-03-01T14:42:13;8.27;;;5.33;;
12350;SDS011;6240;51.538;7.696;2023-03-01T14:44:40;7.50;;;5.73;;
12350;SDS011;6240;51.538;7.696;2023-03-01T14:47:10;9.30;;;5.27;;
12350;SDS011;6240;51.538;7.696;2023-03-01T14:49:39;8.10;;;5.13;;
12350;SDS011;6240;51.538;7.696;2023-03-01T14:52:07;7.50;;;5.00;;
12350;SDS011;6240;51.538;7.696;2023-03-01T14:54:46;6.10;;;4.90;;
12350;SDS011;6240;51.538;7.696;2023-03-01T14:57:14;5.10;;;4.60;;
12350;SDS011;6240;51.538;7.696;2023-03-01T14:59:42;5.97;;;4.87;;
12350;SDS011;6240;51.538;7.696;2023-03-01T15:02:17;8.03;;;4.70;;
12350;SDS011;6240;51.538;7.696;2023-03-01T15:04:45;7.17;;;4.67;;
12350;SDS011;6240;51.538;7.696;2023-03-01T15:07:13;7.33;;;5.27;;
12350;SDS011;6240;51.538;7.696;2023-03-01T15:09:42;7.27;;;4.60;;
12350;SDS011;6240;51.538;7.696;2023-03-01T15:12:34;5.97;;;4.67;;
12350;SDS011;6240;51.538;7.696;2023-03-01T15:17:53;8.60;;;5.17;;
12350;SDS011;6240;51.538;7.696;2023-03-01T15:20:22;5.20;;;4.40;;
12350;SDS011;6240;51.538;7.696;2023-03-01T15:22:50;6.80;;;4.80;;
12350;SDS011;6240;51.538;7.696;2023-03-01T15:25:18;6.10;;;4.23;;
12350;SDS011;6240;51.538;7.696;2023-03-01T15:27:48;6.23;;;4.77;;
12350;SDS011;6240;51.538;7.696;2023-03-01T15:30:17;6.57;;;4.43;;